sensor_id;sensor_type;location;lat;lon;timestamp;P1;durP1;ratioP1;P2;durP2;ratioP2
41635;SDS011;27623;51.966;4.602;2023-04-25T00:01:19;14.13;;;2.83;;
41635;SDS011;27623;51.966;4.602;2023-04-25T00:03:46;15.88;;;3.20;;
41635;SDS011;27623;51.966;4.602;2023-04-25T00:06:12;14.88;;;3.00;;
41635;SDS011;27623;51.966;4.602;2023-04-25T00:08:37;16.05;;;2.95;;
41635;SDS011;27623;51.966;4.602;2023-04-25T00:11:03;15.02;;;2.50;;
41635;SDS011;27623;51.966;4.602;2023-04-25T00:13:31;14.80;;;2.35;;
41635;SDS011;27623;51.966;4.602;2023-04-25T00:15:57;15.18;;;3.05;;
41635;SDS011;27623;51.966;4.602;2023-04-25T00:18:23;17.55;;;3.55;;
41635;SDS011;27623;51.966;4.602;2023-04-25T00:20:48;14.77;;;3.17;;
41635;SDS011;27623;51.966;4.602;2023-04-25T00:23:14;8.88;;;1.80;;
41635;SDS011;27623;51.966;4.602;2023-04-25T00:25:42;14.98;;;2.35;;
41635;SDS011;27623;51.966;4.602;2023-04-25T00:28:11;12.23;;;2.75;;
41635;SDS011;27623;51.966;4.602;2023-04-25T00:30:37;13.35;;;2.60;;
41635;SDS011;27623;51.966;4.602;2023-04-25T00:33:03;11.32;;;2.55;;
41635;SDS011;27623;51.966;4.602;2023-04-25T00:35:29;14.20;;;2.80;;
41635;SDS011;27623;51.966;4.602;2023-04-25T00:37:54;13.75;;;2.60;;
41635;SDS011;27623;51.966;4.602;2023-04-25T00:40:20;11.00;;;2.70;;
41635;SDS011;27623;51.966;4.602;2023-04-25T00:42:48;13.73;;;3.20;;
41635;SDS011;27623;51.966;4.602;2023-04-25T00:45:16;10.25;;;2.38;;
41635;SDS011;27623;51.966;4.602;2023-04-25T00:47:42;9.80;;;2.90;;
41635;SDS011;27623;51.966;4.602;2023-04-25T00:50:08;11.82;;;3.10;;
41635;SDS011;27623;51.966;4.602;2023-04-25T00:52:34;15.20;;;2.83;;
41635;SDS011;27623;51.966;4.602;2023-04-25T00:55:00;8.52;;;2.20;;
41635;SDS011;27623;51.966;4.602;2023-04-25T00:57:26;13.02;;;2.65;;
41635;SDS011;27623;51.966;4.602;2023-04-25T00:59:52;9.40;;;2.15;;
41635;SDS011;27623;51.966;4.602;2023-04-25T01:02:18;10.30;;;1.92;;
41635;SDS011;27623;51.966;4.602;2023-04-25T01:04:45;13.63;;;2.30;;
41635;SDS011;27623;51.966;4.602;2023-04-25T01:07:12;12.45;;;2.20;;
41635;SDS011;27623;51.966;4.602;2023-04-25T01:09:38;6.72;;;2.10;;
41635;SDS011;27623;51.966;4.602;2023-04-25T01:12:04;15.80;;;2.50;;
41635;SDS011;27623;51.966;4.602;2023-04-25T01:14:29;8.68;;;2.35;;
41635;SDS011;27623;51.966;4.602;2023-04-25T01:16:54;13.73;;;2.10;;
41635;SDS011;27623;51.966;4.602;2023-04-25T01:19:20;15.05;;;2.05;;
41635;SDS011;27623;51.966;4.602;2023-04-25T01:21:46;9.07;;;2.42;;
41635;SDS011;27623;51.966;4.602;2023-04-25T01:24:12;15.27;;;3.78;;
41635;SDS011;27623;51.966;4.602;2023-04-25T01:26:38;11.13;;;2.22;;
41635;SDS011;27623;51.966;4.602;2023-04-25T01:29:09;13.35;;;3.13;;
41635;SDS011;27623;51.966;4.602;2023-04-25T01:31:35;10.40;;;3.08;;
41635;SDS011;27623;51.966;4.602;2023-04-25T01:34:02;12.43;;;2.17;;
41635;SDS011;27623;51.966;4.602;2023-04-25T01:36:27;13.73;;;2.53;;
41635;SDS011;27623;51.966;4.602;2023-04-25T01:38:53;11.10;;;2.40;;
41635;SDS011;27623;51.966;4.602;2023-04-25T01:41:18;8.95;;;2.13;;
41635;SDS011;27623;51.966;4.602;2023-04-25T01:43:44;9.35;;;2.05;;
41635;SDS011;27623;51.966;4.602;2023-04-25T01:46:10;15.15;;;2.28;;
41635;SDS011;27623;51.966;4.602;2023-04-25T01:48:36;10.48;;;2.10;;
41635;SDS011;27623;51.966;4.602;2023-04-25T01:51:01;14.10;;;2.63;;
41635;SDS011;27623;51.966;4.602;2023-04-25T01:53:30;11.75;;;2.25;;
41635;SDS011;27623;51.966;4.602;2023-04-25T01:55:56;10.95;;;2.50;;
41635;SDS011;27623;51.966;4.602;2023-04-25T01:58:21;13.05;;;2.75;;
41635;SDS011;27623;51.966;4.602;2023-04-25T02:00:46;10.85;;;2.60;;
41635;SDS011;27623;51.966;4.602;2023-04-25T02:03:12;8.40;;;2.28;;
41635;SDS011;27623;51.966;4.602;2023-04-25T02:05:38;10.05;;;2.30;;
41635;SDS011;27623;51.966;4.602;2023-04-25T02:08:07;11.80;;;2.20;;
41635;SDS011;27623;51.966;4.602;2023-04-25T02:10:33;10.13;;;2.25;;
41635;SDS011;27623;51.966;4.602;2023-04-25T02:12:59;8.30;;;2.85;;
41635;SDS011;27623;51.966;4.602;2023-04-25T02:15:25;10.93;;;2.30;;
41635;SDS011;27623;51.966;4.602;2023-04-25T02:17:50;9.95;;;2.03;;
41635;SDS011;27623;51.966;4.602;2023-04-25T02:20:20;9.35;;;1.75;;
41635;SDS011;27623;51.966;4.602;2023-04-25T02:22:46;8.48;;;1.75;;
41635;SDS011;27623;51.966;4.602;2023-04-25T02:25:11;8.85;;;2.35;;
41635;SDS011;27623;51.966;4.602;2023-04-25T02:27:37;8.43;;;2.30;;
41635;SDS011;27623;51.966;4.602;2023-04-25T02:30:03;9.57;;;2.05;;
41635;SDS011;27623;51.966;4.602;2023-04-25T02:32:29;6.35;;;1.85;;
41635;SDS011;27623;51.966;4.602;2023-04-25T02:34:55;10.93;;;1.90;;
41635;SDS011;27623;51.966;4.602;2023-04-25T02:37:23;7.07;;;2.00;;
41635;SDS011;27623;51.966;4.602;2023-04-25T02:39:49;12.75;;;2.17;;
41635;SDS011;27623;51.966;4.602;2023-04-25T02:42:14;11.20;;;2.50;;
41635;SDS011;27623;51.966;4.602;2023-04-25T02:44:40;17.13;;;2.17;;
41635;SDS011;27623;51.966;4.602;2023-04-25T02:47:05;9.75;;;2.70;;
41635;SDS011;27623;51.966;4.602;2023-04-25T02:49:33;6.15;;;2.50;;
41635;SDS011;27623;51.966;4.602;2023-04-25T02:51:58;8.05;;;2.40;;
41635;SDS011;27623;51.966;4.602;2023-04-25T02:54:24;7.05;;;1.80;;
41635;SDS011;27623;51.966;4.602;2023-04-25T02:56:50;10.80;;;1.75;;
41635;SDS011;27623;51.966;4.602;2023-04-25T02:59:15;10.60;;;1.65;;
41635;SDS011;27623;51.966;4.602;2023-04-25T03:01:43;11.02;;;1.92;;
41635;SDS011;27623;51.966;4.602;2023-04-25T03:04:08;7.47;;;1.60;;
41635;SDS011;27623;51.966;4.602;2023-04-25T03:06:38;7.25;;;1.50;;
41635;SDS011;27623;51.966;4.602;2023-04-25T03:09:04;12.57;;;2.13;;
41635;SDS011;27623;51.966;4.602;2023-04-25T03:11:29;7.38;;;1.73;;
41635;SDS011;27623;51.966;4.602;2023-04-25T03:13:55;6.45;;;2.05;;
41635;SDS011;27623;51.966;4.602;2023-04-25T03:16:22;10.65;;;2.05;;
41635;SDS011;27623;51.966;4.602;2023-04-25T03:18:48;5.93;;;1.73;;
41635;SDS011;27623;51.966;4.602;2023-04-25T03:21:15;7.38;;;1.58;;
41635;SDS011;27623;51.966;4.602;2023-04-25T03:23:40;11.88;;;1.63;;
41635;SDS011;27623;51.966;4.602;2023-04-25T03:26:06;5.72;;;1.33;;
41635;SDS011;27623;51.966;4.602;2023-04-25T03:28:31;6.97;;;2.13;;
41635;SDS011;27623;51.966;4.602;2023-04-25T03:30:58;7.10;;;1.98;;
41635;SDS011;27623;51.966;4.602;2023-04-25T03:33:24;10.15;;;2.10;;
41635;SDS011;27623;51.966;4.602;2023-04-25T03:35:52;8.95;;;1.92;;
41635;SDS011;27623;51.966;4.602;2023-04-25T03:38:18;11.57;;;1.60;;
41635;SDS011;27623;51.966;4.602;2023-04-25T03:40:43;12.18;;;2.33;;
41635;SDS011;27623;51.966;4.602;2023-04-25T03:43:08;7.28;;;1.77;;
41635;SDS011;27623;51.966;4.602;2023-04-25T03:45:34;8.65;;;1.65;;
41635;SDS011;27623;51.966;4.602;2023-04-25T03:47:59;9.35;;;1.75;;
41635;SDS011;27623;51.966;4.602;2023-04-25T03:50:25;7.05;;;2.05;;
41635;SDS011;27623;51.966;4.602;2023-04-25T03:52:50;8.77;;;2.10;;
41635;SDS011;27623;51.966;4.602;2023-04-25T03:55:15;11.07;;;2.22;;
41635;SDS011;27623;51.966;4.602;2023-04-25T03:57:41;12.38;;;2.20;;
41635;SDS011;27623;51.966;4.602;2023-04-25T04:00:06;9.27;;;2.08;;
41635;SDS011;27623;51.966;4.602;2023-04-25T04:02:32;11.77;;;1.73;;
41635;SDS011;27623;51.966;4.602;2023-04-25T04:04:59;7.78;;;1.83;;
41635;SDS011;27623;51.966;4.602;2023-04-25T04:07:25;6.07;;;1.50;;
41635;SDS011;27623;51.966;4.602;2023-04-25T04:09:53;7.60;;;1.50;;
41635;SDS011;27623;51.966;4.602;2023-04-25T04:12:18;7.38;;;1.70;;
41635;SDS011;27623;51.966;4.602;2023-04-25T04:14:43;11.70;;;1.65;;
41635;SDS011;27623;51.966;4.602;2023-04-25T04:17:09;8.70;;;2.22;;
41635;SDS011;27623;51.966;4.602;2023-04-25T04:19:34;17.05;;;1.70;;
41635;SDS011;27623;51.966;4.602;2023-04-25T04:21:59;8.57;;;1.60;;
41635;SDS011;27623;51.966;4.602;2023-04-25T04:24:25;9.55;;;1.80;;
41635;SDS011;27623;51.966;4.602;2023-04-25T04:26:50;11.50;;;3.10;;
41635;SDS011;27623;51.966;4.602;2023-04-25T04:29:17;7.93;;;1.88;;
41635;SDS011;27623;51.966;4.602;2023-04-25T04:31:49;5.88;;;1.30;;
41635;SDS011;27623;51.966;4.602;2023-04-25T04:34:15;13.88;;;2.38;;
41635;SDS011;27623;51.966;4.602;2023-04-25T04:36:41;10.98;;;1.98;;
41635;SDS011;27623;51.966;4.602;2023-04-25T04:39:07;8.75;;;1.95;;
41635;SDS011;27623;51.966;4.602;2023-04-25T04:41:35;8.05;;;1.60;;
41635;SDS011;27623;51.966;4.602;2023-04-25T04:44:00;14.43;;;3.03;;
41635;SDS011;27623;51.966;4.602;2023-04-25T04:46:26;6.32;;;1.48;;
41635;SDS011;27623;51.966;4.602;2023-04-25T04:48:55;16.10;;;1.88;;
41635;SDS011;27623;51.966;4.602;2023-04-25T04:51:23;10.15;;;1.52;;
41635;SDS011;27623;51.966;4.602;2023-04-25T04:53:48;11.20;;;1.85;;
41635;SDS011;27623;51.966;4.602;2023-04-25T04:56:14;9.10;;;1.73;;
41635;SDS011;27623;51.966;4.602;2023-04-25T04:58:40;9.07;;;1.80;;
41635;SDS011;27623;51.966;4.602;2023-04-25T05:01:05;12.20;;;2.35;;
41635;SDS011;27623;51.966;4.602;2023-04-25T05:03:31;9.48;;;2.42;;
41635;SDS011;27623;51.966;4.602;2023-04-25T05:05:56;12.32;;;1.75;;
41635;SDS011;27623;51.966;4.602;2023-04-25T05:08:21;13.02;;;2.65;;
41635;SDS011;27623;51.966;4.602;2023-04-25T05:10:47;9.82;;;1.40;;
41635;SDS011;27623;51.966;4.602;2023-04-25T05:13:12;13.32;;;2.45;;
41635;SDS011;27623;51.966;4.602;2023-04-25T05:15:37;9.68;;;2.78;;
41635;SDS011;27623;51.966;4.602;2023-04-25T05:18:03;7.18;;;2.00;;
41635;SDS011;27623;51.966;4.602;2023-04-25T05:20:28;9.80;;;1.85;;
41635;SDS011;27623;51.966;4.602;2023-04-25T05:22:54;13.98;;;2.08;;
41635;SDS011;27623;51.966;4.602;2023-04-25T05:25:19;8.73;;;1.63;;
41635;SDS011;27623;51.966;4.602;2023-04-25T05:27:45;10.68;;;1.92;;
41635;SDS011;27623;51.966;4.602;2023-04-25T05:30:10;7.80;;;1.83;;
41635;SDS011;27623;51.966;4.602;2023-04-25T05:32:36;9.95;;;1.83;;
41635;SDS011;27623;51.966;4.602;2023-04-25T05:35:01;6.15;;;1.52;;
41635;SDS011;27623;51.966;4.602;2023-04-25T05:37:27;12.50;;;1.92;;
41635;SDS011;27623;51.966;4.602;2023-04-25T05:39:55;7.15;;;1.50;;
41635;SDS011;27623;51.966;4.602;2023-04-25T05:42:20;12.88;;;2.20;;
41635;SDS011;27623;51.966;4.602;2023-04-25T05:44:46;7.75;;;1.98;;
41635;SDS011;27623;51.966;4.602;2023-04-25T05:47:11;5.85;;;1.50;;
41635;SDS011;27623;51.966;4.602;2023-04-25T05:49:36;9.98;;;1.58;;
41635;SDS011;27623;51.966;4.602;2023-04-25T05:52:02;9.77;;;2.85;;
41635;SDS011;27623;51.966;4.602;2023-04-25T05:54:27;8.77;;;1.50;;
41635;SDS011;27623;51.966;4.602;2023-04-25T05:56:53;5.25;;;2.10;;
41635;SDS011;27623;51.966;4.602;2023-04-25T05:59:18;9.20;;;2.00;;
41635;SDS011;27623;51.966;4.602;2023-04-25T06:01:44;8.63;;;1.45;;
41635;SDS011;27623;51.966;4.602;2023-04-25T06:04:09;8.95;;;1.80;;
41635;SDS011;27623;51.966;4.602;2023-04-25T06:06:35;6.05;;;1.40;;
41635;SDS011;27623;51.966;4.602;2023-04-25T06:09:00;6.82;;;1.60;;
41635;SDS011;27623;51.966;4.602;2023-04-25T06:11:25;9.35;;;1.50;;
41635;SDS011;27623;51.966;4.602;2023-04-25T06:13:51;7.80;;;1.65;;
41635;SDS011;27623;51.966;4.602;2023-04-25T06:16:19;4.85;;;0.90;;
41635;SDS011;27623;51.966;4.602;2023-04-25T06:18:44;4.65;;;0.90;;
41635;SDS011;27623;51.966;4.602;2023-04-25T06:21:09;7.00;;;0.90;;
41635;SDS011;27623;51.966;4.602;2023-04-25T06:23:40;3.63;;;0.85;;
41635;SDS011;27623;51.966;4.602;2023-04-25T06:26:05;7.63;;;0.80;;
41635;SDS011;27623;51.966;4.602;2023-04-25T06:28:30;4.40;;;1.35;;
41635;SDS011;27623;51.966;4.602;2023-04-25T06:30:58;2.45;;;0.77;;
41635;SDS011;27623;51.966;4.602;2023-04-25T06:33:24;5.40;;;1.08;;
41635;SDS011;27623;51.966;4.602;2023-04-25T06:35:49;4.20;;;0.98;;
41635;SDS011;27623;51.966;4.602;2023-04-25T06:38:15;4.00;;;1.17;;
41635;SDS011;27623;51.966;4.602;2023-04-25T06:40:41;5.30;;;1.20;;
41635;SDS011;27623;51.966;4.602;2023-04-25T06:43:06;3.40;;;1.15;;
41635;SDS011;27623;51.966;4.602;2023-04-25T06:45:31;2.75;;;0.98;;
41635;SDS011;27623;51.966;4.602;2023-04-25T06:47:57;4.25;;;1.42;;
41635;SDS011;27623;51.966;4.602;2023-04-25T06:50:22;5.03;;;1.13;;
41635;SDS011;27623;51.966;4.602;2023-04-25T06:52:47;3.75;;;0.95;;
41635;SDS011;27623;51.966;4.602;2023-04-25T06:55:13;4.68;;;0.88;;
41635;SDS011;27623;51.966;4.602;2023-04-25T06:57:38;4.57;;;1.30;;
41635;SDS011;27623;51.966;4.602;2023-04-25T07:00:04;4.60;;;1.30;;
41635;SDS011;27623;51.966;4.602;2023-04-25T07:02:34;3.03;;;1.20;;
41635;SDS011;27623;51.966;4.602;2023-04-25T07:05:00;7.30;;;1.35;;
41635;SDS011;27623;51.966;4.602;2023-04-25T07:07:28;4.60;;;0.98;;
41635;SDS011;27623;51.966;4.602;2023-04-25T07:09:55;4.57;;;1.00;;
41635;SDS011;27623;51.966;4.602;2023-04-25T07:12:20;10.82;;;1.30;;
41635;SDS011;27623;51.966;4.602;2023-04-25T07:14:46;8.07;;;1.95;;
41635;SDS011;27623;51.966;4.602;2023-04-25T07:17:11;5.68;;;1.50;;
41635;SDS011;27623;51.966;4.602;2023-04-25T07:19:37;7.03;;;1.60;;
41635;SDS011;27623;51.966;4.602;2023-04-25T07:22:04;7.18;;;1.20;;
41635;SDS011;27623;51.966;4.602;2023-04-25T07:24:32;4.78;;;1.25;;
41635;SDS011;27623;51.966;4.602;2023-04-25T07:26:58;5.07;;;1.02;;
41635;SDS011;27623;51.966;4.602;2023-04-25T07:29:27;7.40;;;1.25;;
41635;SDS011;27623;51.966;4.602;2023-04-25T07:31:56;7.28;;;1.10;;
41635;SDS011;27623;51.966;4.602;2023-04-25T07:34:22;6.38;;;0.90;;
41635;SDS011;27623;51.966;4.602;2023-04-25T07:36:47;5.00;;;1.48;;
41635;SDS011;27623;51.966;4.602;2023-04-25T07:39:13;4.97;;;1.20;;
41635;SDS011;27623;51.966;4.602;2023-04-25T07:41:38;4.03;;;0.98;;
41635;SDS011;27623;51.966;4.602;2023-04-25T07:44:03;6.65;;;1.42;;
41635;SDS011;27623;51.966;4.602;2023-04-25T07:46:29;4.60;;;1.35;;
41635;SDS011;27623;51.966;4.602;2023-04-25T07:48:54;9.20;;;1.45;;
41635;SDS011;27623;51.966;4.602;2023-04-25T07:51:19;11.40;;;1.50;;
41635;SDS011;27623;51.966;4.602;2023-04-25T07:53:47;8.35;;;1.30;;
41635;SDS011;27623;51.966;4.602;2023-04-25T07:56:14;5.70;;;1.17;;
41635;SDS011;27623;51.966;4.602;2023-04-25T07:58:40;6.65;;;1.20;;
41635;SDS011;27623;51.966;4.602;2023-04-25T08:01:05;4.32;;;0.90;;
41635;SDS011;27623;51.966;4.602;2023-04-25T08:03:30;5.00;;;1.50;;
41635;SDS011;27623;51.966;4.602;2023-04-25T08:05:56;7.75;;;1.00;;
41635;SDS011;27623;51.966;4.602;2023-04-25T08:08:21;3.13;;;0.70;;
41635;SDS011;27623;51.966;4.602;2023-04-25T08:10:46;4.45;;;0.88;;
41635;SDS011;27623;51.966;4.602;2023-04-25T08:13:14;5.28;;;0.90;;
41635;SDS011;27623;51.966;4.602;2023-04-25T08:15:39;11.23;;;0.90;;
41635;SDS011;27623;51.966;4.602;2023-04-25T08:18:05;4.95;;;0.90;;
41635;SDS011;27623;51.966;4.602;2023-04-25T08:20:30;5.50;;;1.05;;
41635;SDS011;27623;51.966;4.602;2023-04-25T08:22:58;5.72;;;1.02;;
41635;SDS011;27623;51.966;4.602;2023-04-25T08:25:28;7.75;;;0.80;;
41635;SDS011;27623;51.966;4.602;2023-04-25T08:27:54;7.57;;;1.33;;
41635;SDS011;27623;51.966;4.602;2023-04-25T08:30:21;6.32;;;1.20;;
41635;SDS011;27623;51.966;4.602;2023-04-25T08:32:46;6.22;;;0.88;;
41635;SDS011;27623;51.966;4.602;2023-04-25T08:35:11;7.90;;;1.83;;
41635;SDS011;27623;51.966;4.602;2023-04-25T08:37:37;8.35;;;1.17;;
41635;SDS011;27623;51.966;4.602;2023-04-25T08:40:03;11.65;;;1.35;;
41635;SDS011;27623;51.966;4.602;2023-04-25T08:42:32;8.07;;;2.47;;
41635;SDS011;27623;51.966;4.602;2023-04-25T08:44:59;10.57;;;1.40;;
41635;SDS011;27623;51.966;4.602;2023-04-25T08:47:31;6.65;;;1.10;;
41635;SDS011;27623;51.966;4.602;2023-04-25T08:49:59;5.55;;;1.20;;
41635;SDS011;27623;51.966;4.602;2023-04-25T08:52:25;4.50;;;1.00;;
41635;SDS011;27623;51.966;4.602;2023-04-25T08:54:57;8.98;;;0.85;;
41635;SDS011;27623;51.966;4.602;2023-04-25T08:57:25;8.32;;;1.00;;
41635;SDS011;27623;51.966;4.602;2023-04-25T08:59:51;9.40;;;0.95;;
41635;SDS011;27623;51.966;4.602;2023-04-25T09:02:17;3.80;;;0.70;;
41635;SDS011;27623;51.966;4.602;2023-04-25T09:04:45;4.45;;;0.77;;
41635;SDS011;27623;51.966;4.602;2023-04-25T09:07:11;8.98;;;1.38;;
41635;SDS011;27623;51.966;4.602;2023-04-25T09:09:36;5.68;;;0.80;;
41635;SDS011;27623;51.966;4.602;2023-04-25T09:12:04;7.22;;;1.00;;
41635;SDS011;27623;51.966;4.602;2023-04-25T09:14:30;9.02;;;1.38;;
41635;SDS011;27623;51.966;4.602;2023-04-25T09:19:24;8.77;;;1.70;;
41635;SDS011;27623;51.966;4.602;2023-04-25T09:21:53;11.05;;;1.80;;
41635;SDS011;27623;51.966;4.602;2023-04-25T09:24:29;6.05;;;0.95;;
41635;SDS011;27623;51.966;4.602;2023-04-25T09:27:05;8.07;;;1.08;;
41635;SDS011;27623;51.966;4.602;2023-04-25T09:29:35;9.88;;;1.10;;
41635;SDS011;27623;51.966;4.602;2023-04-25T09:32:16;9.95;;;2.15;;
41635;SDS011;27623;51.966;4.602;2023-04-25T09:34:44;7.53;;;0.80;;
41635;SDS011;27623;51.966;4.602;2023-04-25T09:39:52;7.65;;;1.35;;
41635;SDS011;27623;51.966;4.602;2023-04-25T09:42:22;3.05;;;1.23;;
41635;SDS011;27623;51.966;4.602;2023-04-25T09:44:51;5.30;;;1.25;;
41635;SDS011;27623;51.966;4.602;2023-04-25T09:47:17;3.83;;;0.77;;
41635;SDS011;27623;51.966;4.602;2023-04-25T09:49:46;4.65;;;0.70;;
41635;SDS011;27623;51.966;4.602;2023-04-25T09:52:16;9.98;;;1.58;;
41635;SDS011;27623;51.966;4.602;2023-04-25T09:54:44;6.80;;;0.95;;
41635;SDS011;27623;51.966;4.602;2023-04-25T09:59:42;5.68;;;0.90;;
41635;SDS011;27623;51.966;4.602;2023-04-25T10:02:13;5.20;;;0.88;;
41635;SDS011;27623;51.966;4.602;2023-04-25T10:04:41;4.57;;;1.67;;
41635;SDS011;27623;51.966;4.602;2023-04-25T10:07:09;5.72;;;0.93;;
41635;SDS011;27623;51.966;4.602;2023-04-25T10:09:38;6.15;;;1.10;;
41635;SDS011;27623;51.966;4.602;2023-04-25T10:12:05;7.68;;;1.05;;
41635;SDS011;27623;51.966;4.602;2023-04-25T10:14:32;6.00;;;0.93;;
41635;SDS011;27623;51.966;4.602;2023-04-25T10:16:58;3.15;;;0.93;;
41635;SDS011;27623;51.966;4.602;2023-04-25T10:19:27;3.30;;;0.65;;
41635;SDS011;27623;51.966;4.602;2023-04-25T10:22:07;9.13;;;1.23;;
41635;SDS011;27623;51.966;4.602;2023-04-25T10:24:38;7.13;;;1.65;;
41635;SDS011;27623;51.966;4.602;2023-04-25T10:27:05;5.75;;;0.80;;
41635;SDS011;27623;51.966;4.602;2023-04-25T10:29:31;8.10;;;1.98;;
41635;SDS011;27623;51.966;4.602;2023-04-25T10:31:56;8.48;;;1.10;;
41635;SDS011;27623;51.966;4.602;2023-04-25T10:34:41;4.32;;;1.52;;
41635;SDS011;27623;51.966;4.602;2023-04-25T10:37:13;8.73;;;0.85;;
41635;SDS011;27623;51.966;4.602;2023-04-25T10:39:40;6.88;;;0.98;;
41635;SDS011;27623;51.966;4.602;2023-04-25T10:42:06;3.20;;;0.75;;
41635;SDS011;27623;51.966;4.602;2023-04-25T10:44:33;4.72;;;0.88;;
41635;SDS011;27623;51.966;4.602;2023-04-25T10:47:01;7.78;;;0.98;;
41635;SDS011;27623;51.966;4.602;2023-04-25T10:49:32;12.23;;;1.30;;
41635;SDS011;27623;51.966;4.602;2023-04-25T10:52:18;6.25;;;0.98;;
41635;SDS011;27623;51.966;4.602;2023-04-25T10:54:56;8.25;;;1.48;;
41635;SDS011;27623;51.966;4.602;2023-04-25T11:02:52;4.15;;;1.00;;
41635;SDS011;27623;51.966;4.602;2023-04-25T11:05:33;3.50;;;0.85;;
41635;SDS011;27623;51.966;4.602;2023-04-25T11:08:00;4.32;;;0.90;;
41635;SDS011;27623;51.966;4.602;2023-04-25T11:12:52;5.68;;;0.75;;
41635;SDS011;27623;51.966;4.602;2023-04-25T11:15:18;5.40;;;0.70;;
41635;SDS011;27623;51.966;4.602;2023-04-25T11:17:43;6.78;;;0.77;;
41635;SDS011;27623;51.966;4.602;2023-04-25T11:20:11;6.22;;;0.70;;
41635;SDS011;27623;51.966;4.602;2023-04-25T11:22:38;6.00;;;1.10;;
41635;SDS011;27623;51.966;4.602;2023-04-25T11:25:07;6.88;;;1.13;;
41635;SDS011;27623;51.966;4.602;2023-04-25T11:27:33;7.43;;;0.98;;
41635;SDS011;27623;51.966;4.602;2023-04-25T11:30:09;8.32;;;1.00;;
41635;SDS011;27623;51.966;4.602;2023-04-25T11:32:41;5.03;;;1.00;;
41635;SDS011;27623;51.966;4.602;2023-04-25T11:35:08;4.18;;;0.70;;
41635;SDS011;27623;51.966;4.602;2023-04-25T11:37:34;4.20;;;0.60;;
41635;SDS011;27623;51.966;4.602;2023-04-25T11:39:59;4.03;;;1.25;;
41635;SDS011;27623;51.966;4.602;2023-04-25T11:42:25;4.53;;;0.65;;
41635;SDS011;27623;51.966;4.602;2023-04-25T11:44:51;6.93;;;0.85;;
41635;SDS011;27623;51.966;4.602;2023-04-25T11:47:17;6.95;;;0.93;;
41635;SDS011;27623;51.966;4.602;2023-04-25T11:49:42;5.78;;;1.00;;
41635;SDS011;27623;51.966;4.602;2023-04-25T11:52:10;2.38;;;0.63;;
41635;SDS011;27623;51.966;4.602;2023-04-25T11:54:36;4.47;;;0.95;;
41635;SDS011;27623;51.966;4.602;2023-04-25T11:57:02;8.27;;;1.60;;
41635;SDS011;27623;51.966;4.602;2023-04-25T11:59:28;5.22;;;1.33;;
41635;SDS011;27623;51.966;4.602;2023-04-25T12:01:54;4.22;;;0.68;;
41635;SDS011;27623;51.966;4.602;2023-04-25T12:04:23;4.15;;;1.10;;
41635;SDS011;27623;51.966;4.602;2023-04-25T12:06:50;5.05;;;0.70;;
41635;SDS011;27623;51.966;4.602;2023-04-25T12:09:35;4.00;;;0.80;;
41635;SDS011;27623;51.966;4.602;2023-04-25T12:12:00;2.08;;;0.55;;
41635;SDS011;27623;51.966;4.602;2023-04-25T12:14:36;5.97;;;0.70;;
41635;SDS011;27623;51.966;4.602;2023-04-25T12:17:03;4.65;;;0.73;;
41635;SDS011;27623;51.966;4.602;2023-04-25T12:19:35;3.42;;;0.55;;
41635;SDS011;27623;51.966;4.602;2023-04-25T12:22:18;3.30;;;0.70;;
41635;SDS011;27623;51.966;4.602;2023-04-25T12:24:46;6.32;;;1.25;;
41635;SDS011;27623;51.966;4.602;2023-04-25T12:27:13;7.53;;;1.30;;
41635;SDS011;27623;51.966;4.602;2023-04-25T12:29:49;6.32;;;1.15;;
41635;SDS011;27623;51.966;4.602;2023-04-25T12:32:16;7.13;;;0.80;;
41635;SDS011;27623;51.966;4.602;2023-04-25T12:34:44;2.83;;;0.63;;
41635;SDS011;27623;51.966;4.602;2023-04-25T12:37:10;5.28;;;0.98;;
41635;SDS011;27623;51.966;4.602;2023-04-25T12:39:36;5.70;;;0.90;;
41635;SDS011;27623;51.966;4.602;2023-04-25T12:42:04;5.78;;;1.33;;
41635;SDS011;27623;51.966;4.602;2023-04-25T12:44:29;3.90;;;0.95;;
41635;SDS011;27623;51.966;4.602;2023-04-25T12:46:54;6.38;;;1.10;;
41635;SDS011;27623;51.966;4.602;2023-04-25T12:49:20;5.53;;;1.02;;
41635;SDS011;27623;51.966;4.602;2023-04-25T12:51:45;6.35;;;1.23;;
41635;SDS011;27623;51.966;4.602;2023-04-25T12:54:11;3.20;;;1.33;;
41635;SDS011;27623;51.966;4.602;2023-04-25T12:56:37;8.45;;;1.00;;
41635;SDS011;27623;51.966;4.602;2023-04-25T12:59:06;5.07;;;1.25;;
41635;SDS011;27623;51.966;4.602;2023-04-25T13:01:32;6.88;;;1.50;;
41635;SDS011;27623;51.966;4.602;2023-04-25T13:03:57;6.80;;;0.95;;
41635;SDS011;27623;51.966;4.602;2023-04-25T13:06:25;3.90;;;0.90;;
41635;SDS011;27623;51.966;4.602;2023-04-25T13:08:51;6.07;;;0.88;;
41635;SDS011;27623;51.966;4.602;2023-04-25T13:11:16;5.43;;;0.90;;
41635;SDS011;27623;51.966;4.602;2023-04-25T13:13:43;6.07;;;1.20;;
41635;SDS011;27623;51.966;4.602;2023-04-25T13:16:09;5.18;;;1.13;;
41635;SDS011;27623;51.966;4.602;2023-04-25T13:18:38;3.15;;;0.90;;
41635;SDS011;27623;51.966;4.602;2023-04-25T13:21:04;5.82;;;0.70;;
41635;SDS011;27623;51.966;4.602;2023-04-25T13:23:30;4.90;;;2.20;;
41635;SDS011;27623;51.966;4.602;2023-04-25T13:25:56;4.05;;;0.70;;
41635;SDS011;27623;51.966;4.602;2023-04-25T13:28:26;5.43;;;1.17;;
41635;SDS011;27623;51.966;4.602;2023-04-25T13:30:52;5.05;;;1.10;;
41635;SDS011;27623;51.966;4.602;2023-04-25T13:33:19;8.02;;;1.60;;
41635;SDS011;27623;51.966;4.602;2023-04-25T13:35:45;2.67;;;0.95;;
41635;SDS011;27623;51.966;4.602;2023-04-25T13:38:14;4.38;;;0.88;;
41635;SDS011;27623;51.966;4.602;2023-04-25T13:40:40;4.30;;;0.82;;
41635;SDS011;27623;51.966;4.602;2023-04-25T13:43:05;6.18;;;0.98;;
41635;SDS011;27623;51.966;4.602;2023-04-25T13:45:31;2.85;;;1.00;;
41635;SDS011;27623;51.966;4.602;2023-04-25T13:47:57;10.15;;;1.30;;
41635;SDS011;27623;51.966;4.602;2023-04-25T13:50:22;6.53;;;1.00;;
41635;SDS011;27623;51.966;4.602;2023-04-25T13:52:47;4.25;;;1.15;;
41635;SDS011;27623;51.966;4.602;2023-04-25T13:55:13;7.63;;;1.33;;
41635;SDS011;27623;51.966;4.602;2023-04-25T13:57:38;6.85;;;1.30;;
41635;SDS011;27623;51.966;4.602;2023-04-25T14:00:05;12.20;;;1.30;;
41635;SDS011;27623;51.966;4.602;2023-04-25T14:02:36;3.67;;;0.90;;
41635;SDS011;27623;51.966;4.602;2023-04-25T14:05:02;7.85;;;1.25;;
41635;SDS011;27623;51.966;4.602;2023-04-25T14:07:28;4.65;;;0.80;;
41635;SDS011;27623;51.966;4.602;2023-04-25T14:09:55;3.83;;;1.00;;
41635;SDS011;27623;51.966;4.602;2023-04-25T14:12:22;3.22;;;0.80;;
41635;SDS011;27623;51.966;4.602;2023-04-25T14:14:47;8.68;;;0.70;;
41635;SDS011;27623;51.966;4.602;2023-04-25T14:17:13;4.45;;;1.10;;
41635;SDS011;27623;51.966;4.602;2023-04-25T14:19:38;4.47;;;0.70;;
41635;SDS011;27623;51.966;4.602;2023-04-25T14:22:08;5.22;;;0.80;;
41635;SDS011;27623;51.966;4.602;2023-04-25T14:24:36;4.57;;;1.13;;
41635;SDS011;27623;51.966;4.602;2023-04-25T14:27:04;6.35;;;1.13;;
41635;SDS011;27623;51.966;4.602;2023-04-25T14:29:30;2.83;;;0.70;;
41635;SDS011;27623;51.966;4.602;2023-04-25T14:31:55;7.00;;;1.00;;
41635;SDS011;27623;51.966;4.602;2023-04-25T14:34:24;3.65;;;0.80;;
41635;SDS011;27623;51.966;4.602;2023-04-25T14:36:50;4.60;;;0.98;;
41635;SDS011;27623;51.966;4.602;2023-04-25T14:39:16;8.00;;;1.27;;
41635;SDS011;27623;51.966;4.602;2023-04-25T14:41:42;4.15;;;0.75;;
41635;SDS011;27623;51.966;4.602;2023-04-25T14:44:07;3.33;;;1.13;;
41635;SDS011;27623;51.966;4.602;2023-04-25T14:46:33;3.78;;;0.93;;
41635;SDS011;27623;51.966;4.602;2023-04-25T14:48:58;3.10;;;0.52;;
41635;SDS011;27623;51.966;4.602;2023-04-25T14:51:26;4.30;;;0.90;;
41635;SDS011;27623;51.966;4.602;2023-04-25T14:53:51;5.82;;;0.90;;
41635;SDS011;27623;51.966;4.602;2023-04-25T14:56:17;6.38;;;0.75;;
41635;SDS011;27623;51.966;4.602;2023-04-25T14:58:43;3.30;;;0.85;;